Terminal Aerodrome Forecast
Issued by NWS

Home | Current Version | Previous Version | Text Only | Print | Product List | Glossary On
Versions: 1 2 3 4 5 6 7 8 9 10 11 12 13 14 15 16 17 18 19
000
FTUS43 KDLH 231727
TAFHIB
TAF
KHIB 231727Z 2318/2418 07008KT 5SM -SN SCT015 BKN022 OVC030
     FM232000 09008KT P6SM VCSH SCT010 BKN015
     FM240000 09007KT P6SM VCSH BKN020
     FM240500 10008KT 5SM -SN SCT008 BKN015 OVC025
     FM240900 11012KT P6SM BKN007
     FM241200 12010KT P6SM SCT020 BKN150=

USA.gov is the U.S. government's official web portal to all federal, state and local government web resources and services.